createdAt,value
2023-05-09T00:00:50.731Z,1004.03
2023-05-09T00:01:50.786Z,1004.01
2023-05-09T00:02:50.742Z,1003.99
2023-05-09T00:03:50.738Z,1003.98
2023-05-09T00:04:50.741Z,1004.00
2023-05-09T00:05:50.667Z,1004.00
2023-05-09T00:06:50.651Z,1004.00
2023-05-09T00:07:50.664Z,1004.00
2023-05-09T00:08:50.625Z,1004.02
2023-05-09T00:09:50.612Z,1004.00
2023-05-09T00:10:50.594Z,1003.96
2023-05-09T00:11:50.700Z,1003.98
2023-05-09T00:12:50.628Z,1003.97
2023-05-09T00:13:50.568Z,1003.99
2023-05-09T00:14:50.546Z,1004.00
2023-05-09T00:15:50.535Z,1003.96
2023-05-09T00:16:50.659Z,1003.96
2023-05-09T00:17:50.698Z,1003.94
2023-05-09T00:18:50.491Z,1003.93
2023-05-09T00:19:50.478Z,1003.91
2023-05-09T00:20:50.466Z,1003.94
2023-05-09T00:21:50.464Z,1003.93
2023-05-09T00:22:50.442Z,1003.91
2023-05-09T00:23:50.430Z,1003.94
2023-05-09T00:24:50.410Z,1003.93
2023-05-09T00:25:50.430Z,1003.91
2023-05-09T00:26:50.411Z,1003.87
2023-05-09T00:27:50.381Z,1003.86
2023-05-09T00:28:50.362Z,1003.83
2023-05-09T00:29:50.350Z,1003.82
2023-05-09T00:30:50.355Z,1003.78
2023-05-09T00:31:50.362Z,1003.76
2023-05-09T00:32:50.348Z,1003.75
2023-05-09T00:33:50.296Z,1003.76
2023-05-09T00:34:50.274Z,1003.77
2023-05-09T00:35:50.299Z,1003.74
2023-05-09T00:36:50.257Z,1003.72
2023-05-09T00:37:50.257Z,1003.71
2023-05-09T00:38:50.233Z,1003.69
2023-05-09T00:39:50.220Z,1003.68
2023-05-09T00:40:50.216Z,1003.66
2023-05-09T00:41:50.186Z,1003.69
2023-05-09T00:42:50.176Z,1003.68
2023-05-09T00:43:50.168Z,1003.67
2023-05-09T00:44:50.164Z,1003.66
2023-05-09T00:45:50.211Z,1003.68
2023-05-09T00:46:50.122Z,1003.67
2023-05-09T00:47:50.145Z,1003.68
2023-05-09T00:48:50.102Z,1003.65
2023-05-09T00:49:50.100Z,1003.62
2023-05-09T00:50:50.060Z,1003.65
2023-05-09T00:51:50.058Z,1003.65
2023-05-09T00:52:50.048Z,1003.64
2023-05-09T00:53:50.030Z,1003.58
2023-05-09T00:54:50.040Z,1003.61
2023-05-09T00:55:50.008Z,1003.62
2023-05-09T00:56:49.983Z,1003.61
2023-05-09T00:57:49.976Z,1003.60
2023-05-09T00:58:49.981Z,1003.54
2023-05-09T00:59:50.032Z,1003.51
2023-05-09T01:00:49.929Z,1003.49
2023-05-09T01:01:49.958Z,1003.51
2023-05-09T01:02:49.986Z,1003.49
2023-05-09T01:03:50.040Z,1003.46
2023-05-09T01:04:49.881Z,1003.44
2023-05-09T01:05:49.875Z,1003.44
2023-05-09T01:06:49.865Z,1003.44
2023-05-09T01:07:49.843Z,1003.41
2023-05-09T01:08:49.936Z,1003.43
2023-05-09T01:09:49.820Z,1003.39
2023-05-09T01:10:49.814Z,1003.38
2023-05-09T01:11:49.797Z,1003.38
2023-05-09T01:12:49.896Z,1003.37
2023-05-09T01:13:49.781Z,1003.34
2023-05-09T01:14:49.752Z,1003.31
2023-05-09T01:15:49.762Z,1003.31
2023-05-09T01:16:49.721Z,1003.33
2023-05-09T01:17:49.785Z,1003.34
2023-05-09T01:18:49.693Z,1003.30
2023-05-09T01:19:49.690Z,1003.30
2023-05-09T01:20:49.665Z,1003.30
2023-05-09T01:21:49.660Z,1003.30
2023-05-09T01:22:49.670Z,1003.26
2023-05-09T01:23:49.633Z,1003.24
2023-05-09T01:24:49.612Z,1003.24
2023-05-09T01:25:49.627Z,1003.22
2023-05-09T01:26:49.615Z,1003.21
2023-05-09T01:27:49.595Z,1003.25
2023-05-09T01:28:49.562Z,1003.25
2023-05-09T01:29:49.552Z,1003.22
2023-05-09T01:30:49.534Z,1003.22
2023-05-09T01:31:49.767Z,1003.20
2023-05-09T01:32:49.560Z,1003.17
2023-05-09T01:33:49.534Z,1003.16
2023-05-09T01:34:49.487Z,1003.17
2023-05-09T01:35:49.480Z,1003.17
2023-05-09T01:36:49.482Z,1003.13
2023-05-09T01:37:49.456Z,1003.15
2023-05-09T01:38:49.432Z,1003.13
2023-05-09T01:39:49.448Z,1003.15
2023-05-09T01:40:49.425Z,1003.13
2023-05-09T01:41:49.422Z,1003.13
2023-05-09T01:42:49.387Z,1003.12
2023-05-09T01:43:49.401Z,1003.14
2023-05-09T01:44:49.359Z,1003.15
2023-05-09T01:45:49.375Z,1003.14
2023-05-09T01:46:49.376Z,1003.15
2023-05-09T01:47:49.359Z,1003.13
2023-05-09T01:48:49.302Z,1003.17
2023-05-09T01:49:49.305Z,1003.10
2023-05-09T01:50:49.295Z,1003.08
2023-05-09T01:51:49.277Z,1003.09
2023-05-09T01:52:49.252Z,1003.11
2023-05-09T01:53:49.252Z,1003.10
2023-05-09T01:54:49.249Z,1003.09
2023-05-09T01:55:49.236Z,1003.06
2023-05-09T01:56:49.200Z,1003.06
2023-05-09T01:57:49.209Z,1003.07
2023-05-09T01:58:49.175Z,1003.06
2023-05-09T01:59:49.180Z,1003.06
2023-05-09T02:00:49.169Z,1003.09
2023-05-09T02:01:49.189Z,1003.11
2023-05-09T02:02:49.390Z,1003.11
2023-05-09T02:03:49.115Z,1003.11
2023-05-09T02:04:49.216Z,1003.12
2023-05-09T02:05:49.085Z,1003.15
2023-05-09T02:06:49.067Z,1003.13
2023-05-09T02:07:49.054Z,1003.15
2023-05-09T02:08:49.054Z,1003.16
2023-05-09T02:09:49.048Z,1003.15
2023-05-09T02:10:49.021Z,1003.18
2023-05-09T02:11:49.006Z,1003.14
2023-05-09T02:12:49.004Z,1003.16
2023-05-09T02:13:48.991Z,1003.13
2023-05-09T02:14:48.956Z,1003.12
2023-05-09T02:15:48.968Z,1003.10
2023-05-09T02:16:49.041Z,1003.09
2023-05-09T02:17:48.965Z,1003.09
2023-05-09T02:18:48.929Z,1003.07
2023-05-09T02:19:48.911Z,1003.05
2023-05-09T02:20:48.895Z,1003.06
2023-05-09T02:21:48.920Z,1003.01
2023-05-09T02:22:48.863Z,1002.99
2023-05-09T02:23:48.893Z,1002.98
2023-05-09T02:24:48.836Z,1002.98
2023-05-09T02:25:48.819Z,1003.02
2023-05-09T02:26:48.807Z,1003.00
2023-05-09T02:27:48.803Z,1003.04
2023-05-09T02:28:48.794Z,1003.01
2023-05-09T02:29:48.771Z,1002.99
2023-05-09T02:30:48.755Z,1003.03
2023-05-09T02:31:48.794Z,1003.03
2023-05-09T02:32:48.786Z,1003.04
2023-05-09T02:33:48.711Z,1003.02
2023-05-09T02:34:48.715Z,1003.03
2023-05-09T02:35:48.702Z,1003.00
2023-05-09T02:36:48.695Z,1003.01
2023-05-09T02:37:48.671Z,1002.97
2023-05-09T02:38:48.651Z,1002.95
2023-05-09T02:39:48.645Z,1002.94
2023-05-09T02:40:50.338Z,1002.90
2023-05-09T02:41:48.620Z,1002.89
2023-05-09T02:42:48.583Z,1002.89
2023-05-09T02:43:48.577Z,1002.83
2023-05-09T02:44:48.581Z,1002.84
2023-05-09T02:45:48.572Z,1002.82
2023-05-09T02:46:48.555Z,1002.80
2023-05-09T02:47:48.544Z,1002.80
2023-05-09T02:48:48.508Z,1002.81
2023-05-09T02:49:48.497Z,1002.83
2023-05-09T02:50:48.553Z,1002.82
2023-05-09T02:51:48.534Z,1002.79
2023-05-09T02:52:48.462Z,1002.76
2023-05-09T02:53:48.433Z,1002.78
2023-05-09T02:54:48.430Z,1002.74
2023-05-09T02:55:48.534Z,1002.71
2023-05-09T02:56:48.400Z,1002.73
2023-05-09T02:57:50.484Z,1002.74
2023-05-09T02:58:49.372Z,1002.73
2023-05-09T02:59:48.357Z,1002.77
2023-05-09T03:00:48.373Z,1002.77
2023-05-09T03:01:48.440Z,1002.71
2023-05-09T03:02:48.359Z,1002.71
2023-05-09T03:03:48.398Z,1002.70
2023-05-09T03:04:48.316Z,1002.71
2023-05-09T03:05:48.291Z,1002.67
2023-05-09T03:06:48.265Z,1002.68
2023-05-09T03:07:48.247Z,1002.70
2023-05-09T03:08:48.252Z,1002.68
2023-05-09T03:09:48.244Z,1002.69
2023-05-09T03:10:48.235Z,1002.67
2023-05-09T03:11:48.200Z,1002.68
2023-05-09T03:12:48.235Z,1002.68
2023-05-09T03:13:48.174Z,1002.67
2023-05-09T03:14:48.180Z,1002.65
2023-05-09T03:15:48.161Z,1002.65
2023-05-09T03:16:48.141Z,1002.64
2023-05-09T03:17:48.192Z,1002.66
2023-05-09T03:18:48.110Z,1002.67
2023-05-09T03:19:48.107Z,1002.64
2023-05-09T03:20:48.081Z,1002.65
2023-05-09T03:21:48.076Z,1002.62
2023-05-09T03:22:48.052Z,1002.59
2023-05-09T03:23:48.056Z,1002.61
2023-05-09T03:24:48.049Z,1002.59
2023-05-09T03:25:48.015Z,1002.58
2023-05-09T03:26:48.006Z,1002.58
2023-05-09T03:27:47.995Z,1002.54
2023-05-09T03:28:47.991Z,1002.56
2023-05-09T03:29:47.981Z,1002.56
2023-05-09T03:30:47.951Z,1002.59
2023-05-09T03:31:47.987Z,1002.57
2023-05-09T03:32:47.985Z,1002.56
2023-05-09T03:33:47.932Z,1002.55
2023-05-09T03:34:47.904Z,1002.57
2023-05-09T03:35:47.879Z,1002.55
2023-05-09T03:36:47.986Z,1002.54
2023-05-09T03:37:47.871Z,1002.54
2023-05-09T03:38:47.854Z,1002.49
2023-05-09T03:39:47.821Z,1002.50
2023-05-09T03:40:47.817Z,1002.49
2023-05-09T03:41:47.790Z,1002.48
2023-05-09T03:42:47.809Z,1002.46
2023-05-09T03:43:47.768Z,1002.44
2023-05-09T03:44:47.760Z,1002.45
2023-05-09T03:45:47.739Z,1002.43
2023-05-09T03:46:47.791Z,1002.39
2023-05-09T03:47:47.739Z,1002.40
2023-05-09T03:48:47.703Z,1002.37
2023-05-09T03:49:47.685Z,1002.33
2023-05-09T03:50:47.692Z,1002.33
2023-05-09T03:51:47.694Z,1002.33
2023-05-09T03:52:47.672Z,1002.28
2023-05-09T03:53:47.636Z,1002.30
2023-05-09T03:54:47.635Z,1002.27
2023-05-09T03:55:47.613Z,1002.31
2023-05-09T03:56:47.618Z,1002.27
2023-05-09T03:57:47.584Z,1002.29
2023-05-09T03:58:47.581Z,1002.30
2023-05-09T03:59:47.567Z,1002.34
2023-05-09T04:00:47.551Z,1002.35
2023-05-09T04:01:47.613Z,1002.38
2023-05-09T04:02:47.653Z,1002.38
2023-05-09T04:03:47.561Z,1002.38
2023-05-09T04:04:47.519Z,1002.38
2023-05-09T04:05:47.486Z,1002.39
2023-05-09T04:06:47.490Z,1002.38
2023-05-09T04:07:47.456Z,1002.41
2023-05-09T04:08:47.445Z,1002.40
2023-05-09T04:09:47.419Z,1002.40
2023-05-09T04:10:47.439Z,1002.46
2023-05-09T04:11:47.421Z,1002.41
2023-05-09T04:12:47.441Z,1002.40
2023-05-09T04:13:47.367Z,1002.40
2023-05-09T04:14:49.073Z,1002.38
2023-05-09T04:15:47.432Z,1002.40
2023-05-09T04:16:47.354Z,1002.38
2023-05-09T04:17:47.350Z,1002.38
2023-05-09T04:18:47.324Z,1002.37
2023-05-09T04:19:47.292Z,1002.37
2023-05-09T04:20:47.304Z,1002.39
2023-05-09T04:21:47.271Z,1002.39
2023-05-09T04:22:47.259Z,1002.40
2023-05-09T04:23:47.246Z,1002.39
2023-05-09T04:24:47.250Z,1002.33
2023-05-09T04:25:47.249Z,1002.35
2023-05-09T04:26:47.197Z,1002.34
2023-05-09T04:27:47.183Z,1002.35
2023-05-09T04:28:47.180Z,1002.37
2023-05-09T04:29:47.182Z,1002.36
2023-05-09T04:30:47.194Z,1002.34
2023-05-09T04:31:47.215Z,1002.36
2023-05-09T04:32:47.164Z,1002.33
2023-05-09T04:33:47.110Z,1002.37
2023-05-09T04:34:47.124Z,1002.33
2023-05-09T04:35:47.068Z,1002.35
2023-05-09T04:36:47.074Z,1002.32
2023-05-09T04:37:47.056Z,1002.32
2023-05-09T04:38:47.057Z,1002.31
2023-05-09T04:39:47.037Z,1002.30
2023-05-09T04:40:47.010Z,1002.32
2023-05-09T04:41:47.163Z,1002.30
2023-05-09T04:42:47.005Z,1002.27
2023-05-09T04:43:46.991Z,1002.21
2023-05-09T04:44:46.983Z,1002.22
2023-05-09T04:45:47.006Z,1002.20
2023-05-09T04:46:46.978Z,1002.16
2023-05-09T04:47:46.950Z,1002.18
2023-05-09T04:48:46.922Z,1002.16
2023-05-09T04:49:46.900Z,1002.14
2023-05-09T04:50:46.887Z,1002.11
2023-05-09T04:51:46.866Z,1002.11
2023-05-09T04:52:46.865Z,1002.10
2023-05-09T04:53:46.861Z,1002.07
2023-05-09T04:54:46.835Z,1002.08
2023-05-09T04:55:46.819Z,1002.05
2023-05-09T04:56:48.281Z,1002.02
2023-05-09T04:57:46.824Z,1002.02
2023-05-09T04:58:46.803Z,1002.04
2023-05-09T04:59:46.766Z,1002.03
2023-05-09T05:00:46.776Z,1002.04
2023-05-09T05:01:46.825Z,1001.99
2023-05-09T05:02:46.842Z,1001.99
2023-05-09T05:03:46.705Z,1002.00
2023-05-09T05:04:46.897Z,1001.99
2023-05-09T05:05:46.719Z,1001.97
2023-05-09T05:06:46.666Z,1001.99
2023-05-09T05:07:46.673Z,1001.99
2023-05-09T05:08:46.647Z,1001.97
2023-05-09T05:09:46.634Z,1001.94
2023-05-09T05:10:46.617Z,1001.92
2023-05-09T05:11:58.407Z,1001.94
2023-05-09T05:12:47.627Z,1001.91
2023-05-09T05:13:46.577Z,1001.88
2023-05-09T05:14:46.572Z,1001.83
2023-05-09T05:15:46.554Z,1001.88
2023-05-09T05:16:46.556Z,1001.91
2023-05-09T05:17:46.590Z,1001.88
2023-05-09T05:18:46.522Z,1001.90
2023-05-09T05:19:46.492Z,1001.88
2023-05-09T05:20:46.503Z,1001.92
2023-05-09T05:21:46.491Z,1001.88
2023-05-09T05:22:46.477Z,1001.85
2023-05-09T05:23:46.435Z,1001.87
2023-05-09T05:24:46.430Z,1001.83
2023-05-09T05:25:46.432Z,1001.81
2023-05-09T05:26:46.425Z,1001.80
2023-05-09T05:27:46.385Z,1001.79
2023-05-09T05:28:46.385Z,1001.79
2023-05-09T05:29:46.357Z,1001.77
2023-05-09T05:30:46.382Z,1001.79
2023-05-09T05:31:46.390Z,1001.79
2023-05-09T05:32:46.338Z,1001.77
2023-05-09T05:33:46.306Z,1001.79
2023-05-09T05:34:46.302Z,1001.77
2023-05-09T05:35:46.312Z,1001.77
2023-05-09T05:36:46.277Z,1001.78
2023-05-09T05:37:48.947Z,1001.78
2023-05-09T05:38:46.249Z,1001.75
2023-05-09T05:39:46.240Z,1001.76
2023-05-09T05:40:46.232Z,1001.74
2023-05-09T05:41:46.202Z,1001.74
2023-05-09T05:42:46.190Z,1001.75
2023-05-09T05:43:46.179Z,1001.74
2023-05-09T05:44:46.197Z,1001.75
2023-05-09T05:45:46.190Z,1001.77
2023-05-09T05:46:46.146Z,1001.78
2023-05-09T05:47:46.146Z,1001.73
2023-05-09T05:48:46.143Z,1001.77
2023-05-09T05:49:46.112Z,1001.75
2023-05-09T05:50:46.097Z,1001.74
2023-05-09T05:51:46.074Z,1001.72
2023-05-09T05:52:46.053Z,1001.73
2023-05-09T05:53:46.054Z,1001.73
2023-05-09T05:54:46.044Z,1001.72
2023-05-09T05:55:46.019Z,1001.72
2023-05-09T05:56:46.010Z,1001.73
2023-05-09T05:57:46.000Z,1001.71
2023-05-09T05:58:46.042Z,1001.71
2023-05-09T05:59:45.964Z,1001.72
2023-05-09T06:00:45.945Z,1001.70
2023-05-09T06:01:45.960Z,1001.73
2023-05-09T06:02:45.996Z,1001.73
2023-05-09T06:03:46.017Z,1001.71
2023-05-09T06:04:45.891Z,1001.72
2023-05-09T06:05:45.873Z,1001.71
2023-05-09T06:06:45.865Z,1001.70
2023-05-09T06:07:45.867Z,1001.70
2023-05-09T06:08:45.867Z,1001.66
2023-05-09T06:09:45.821Z,1001.70
2023-05-09T06:10:45.819Z,1001.70
2023-05-09T06:11:45.805Z,1001.68
2023-05-09T06:12:45.832Z,1001.70
2023-05-09T06:13:45.760Z,1001.69
2023-05-09T06:14:45.761Z,1001.68
2023-05-09T06:15:45.762Z,1001.69
2023-05-09T06:16:45.746Z,1001.68
2023-05-09T06:17:45.783Z,1001.66
2023-05-09T06:18:45.706Z,1001.65
2023-05-09T06:19:45.697Z,1001.61
2023-05-09T06:20:45.684Z,1001.61
2023-05-09T06:21:45.678Z,1001.57
2023-05-09T06:22:45.662Z,1001.56
2023-05-09T06:24:01.461Z,1001.56
2023-05-09T06:24:46.622Z,1001.56
2023-05-09T06:25:45.617Z,1001.53
2023-05-09T06:26:45.607Z,1001.55
2023-05-09T06:27:45.578Z,1001.55
2023-05-09T06:28:45.584Z,1001.52
2023-05-09T06:29:45.552Z,1001.47
2023-05-09T06:30:45.549Z,1001.47
2023-05-09T06:31:45.586Z,1001.46
2023-05-09T06:32:45.606Z,1001.46
2023-05-09T06:33:45.498Z,1001.43
2023-05-09T06:34:45.500Z,1001.40
2023-05-09T06:35:45.489Z,1001.41
2023-05-09T06:36:45.483Z,1001.43
2023-05-09T06:37:47.691Z,1001.42
2023-05-09T06:38:45.450Z,1001.41
2023-05-09T06:39:45.420Z,1001.39
2023-05-09T06:40:45.433Z,1001.41
2023-05-09T06:41:45.404Z,1001.41
2023-05-09T06:42:45.403Z,1001.39
2023-05-09T06:43:45.375Z,1001.38
2023-05-09T06:44:45.421Z,1001.35
2023-05-09T06:45:45.364Z,1001.36
2023-05-09T06:46:45.385Z,1001.34
2023-05-09T06:47:45.399Z,1001.34
2023-05-09T06:48:45.325Z,1001.32
2023-05-09T06:49:45.288Z,1001.28
2023-05-09T06:50:45.298Z,1001.31
2023-05-09T06:51:45.265Z,1001.27
2023-05-09T06:52:45.255Z,1001.22
2023-05-09T06:53:45.248Z,1001.23
2023-05-09T06:54:45.259Z,1001.18
2023-05-09T06:55:45.226Z,1001.17
2023-05-09T06:56:45.206Z,1001.11
2023-05-09T06:57:45.181Z,1001.11
2023-05-09T06:58:45.177Z,1001.08
2023-05-09T06:59:45.175Z,1001.04
2023-05-09T07:00:45.138Z,1001.06
2023-05-09T07:01:45.154Z,1001.04
2023-05-09T07:02:45.126Z,1001.04
2023-05-09T07:03:45.108Z,1001.03
2023-05-09T07:04:45.132Z,1001.04
2023-05-09T07:05:45.093Z,1001.05
2023-05-09T07:06:45.060Z,1001.08
2023-05-09T07:07:45.056Z,1001.10
2023-05-09T07:08:45.059Z,1001.10
2023-05-09T07:09:45.046Z,1001.16
2023-05-09T07:10:45.005Z,1001.10
2023-05-09T07:11:45.002Z,1001.12
2023-05-09T07:12:45.020Z,1001.09
2023-05-09T07:13:45.010Z,1001.08
2023-05-09T07:14:44.976Z,1001.06
2023-05-09T07:15:45.094Z,1001.00
2023-05-09T07:16:44.982Z,1000.99
2023-05-09T07:17:45.007Z,1001.00
2023-05-09T07:18:44.916Z,1000.96
2023-05-09T07:19:44.893Z,1000.93
2023-05-09T07:20:44.896Z,1000.93
2023-05-09T07:21:44.887Z,1000.93
2023-05-09T07:22:44.896Z,1000.92
2023-05-09T07:23:44.857Z,1000.85
2023-05-09T07:24:44.826Z,1000.84
2023-05-09T07:25:44.829Z,1000.82
2023-05-09T07:26:44.803Z,1000.77
2023-05-09T07:27:44.824Z,1000.79
2023-05-09T07:28:44.776Z,1000.74
2023-05-09T07:29:44.763Z,1000.73
2023-05-09T07:30:44.744Z,1000.73
2023-05-09T07:31:44.792Z,1000.70
2023-05-09T07:32:44.818Z,1000.71
2023-05-09T07:33:44.719Z,1000.69
2023-05-09T07:34:44.693Z,1000.75
2023-05-09T07:35:44.699Z,1000.71
2023-05-09T07:36:44.705Z,1000.70
2023-05-09T07:37:44.680Z,1000.66
2023-05-09T07:38:44.640Z,1000.67
2023-05-09T07:39:44.627Z,1000.68
2023-05-09T07:40:44.605Z,1000.64
2023-05-09T07:41:44.615Z,1000.66
2023-05-09T07:42:44.575Z,1000.65
2023-05-09T07:43:44.593Z,1000.61
2023-05-09T07:44:44.554Z,1000.64
2023-05-09T07:45:44.582Z,1000.60
2023-05-09T07:46:44.545Z,1000.62
2023-05-09T07:47:44.632Z,1000.61
2023-05-09T07:48:44.504Z,1000.61
2023-05-09T07:49:44.493Z,1000.58
2023-05-09T07:50:44.494Z,1000.59
2023-05-09T07:51:44.476Z,1000.53
2023-05-09T07:52:44.450Z,1000.54
2023-05-09T07:53:44.429Z,1000.53
2023-05-09T07:54:44.414Z,1000.47
2023-05-09T07:55:44.416Z,1000.47
2023-05-09T07:56:44.384Z,1000.46
2023-05-09T07:57:44.372Z,1000.45
2023-05-09T07:58:44.366Z,1000.43
2023-05-09T07:59:44.344Z,1000.44
2023-05-09T08:00:44.394Z,1000.43
2023-05-09T08:01:44.319Z,1000.40
2023-05-09T08:02:44.394Z,1000.38
2023-05-09T08:03:44.373Z,1000.37
2023-05-09T08:04:44.296Z,1000.35
2023-05-09T08:05:44.286Z,1000.30
2023-05-09T08:06:44.254Z,1000.32
2023-05-09T08:07:44.240Z,1000.33
2023-05-09T08:08:44.219Z,1000.27
2023-05-09T08:09:44.230Z,1000.24
2023-05-09T08:10:44.197Z,1000.26
2023-05-09T08:11:44.186Z,1000.26
2023-05-09T08:12:44.205Z,1000.23
2023-05-09T08:13:44.174Z,1000.18
2023-05-09T08:14:44.169Z,1000.17
2023-05-09T08:15:44.205Z,1000.14
2023-05-09T08:16:44.131Z,1000.12
2023-05-09T08:17:44.158Z,1000.10
2023-05-09T08:18:44.138Z,1000.05
2023-05-09T08:19:44.095Z,1000.05
2023-05-09T08:20:44.061Z,1000.04
2023-05-09T08:21:44.059Z,1000.01
2023-05-09T08:22:44.048Z,1000.02
2023-05-09T08:23:44.056Z,1000.01
2023-05-09T08:24:44.038Z,1000.00
2023-05-09T08:25:44.014Z,1000.01
2023-05-09T08:26:44.000Z,999.99
2023-05-09T08:27:43.988Z,999.96
2023-05-09T08:28:43.991Z,999.96
2023-05-09T08:29:43.959Z,999.95
2023-05-09T08:30:43.946Z,999.94
2023-05-09T08:31:43.999Z,999.94
2023-05-09T08:32:43.960Z,999.95
2023-05-09T08:33:43.984Z,999.97
2023-05-09T08:34:43.886Z,999.94
2023-05-09T08:35:43.880Z,999.90
2023-05-09T08:36:43.859Z,999.89
2023-05-09T08:37:43.868Z,999.89
2023-05-09T08:38:43.844Z,999.87
2023-05-09T08:39:43.826Z,999.86
2023-05-09T08:40:43.815Z,999.89
2023-05-09T08:41:43.805Z,999.83
2023-05-09T08:42:43.796Z,999.81
2023-05-09T08:43:43.796Z,999.82
2023-05-09T08:44:43.773Z,999.84
2023-05-09T08:45:43.740Z,999.87
2023-05-09T08:46:43.833Z,999.80
2023-05-09T08:47:43.742Z,999.83
2023-05-09T08:48:43.697Z,999.82
2023-05-09T08:49:43.708Z,999.79
2023-05-09T08:50:43.679Z,999.77
2023-05-09T08:51:43.671Z,999.74
2023-05-09T08:52:43.674Z,999.75
2023-05-09T08:53:43.647Z,999.74
2023-05-09T08:54:43.645Z,999.71
2023-05-09T08:55:43.621Z,999.67
2023-05-09T08:56:43.617Z,999.65
2023-05-09T08:57:43.629Z,999.64
2023-05-09T08:58:43.570Z,999.63
2023-05-09T08:59:43.559Z,999.64
2023-05-09T09:00:43.540Z,999.62
2023-05-09T09:01:43.653Z,999.63
2023-05-09T09:02:43.536Z,999.64
2023-05-09T09:03:43.514Z,999.61
2023-05-09T09:04:43.544Z,999.59
2023-05-09T09:05:43.553Z,999.66
2023-05-09T09:06:43.491Z,999.63
2023-05-09T09:07:43.461Z,999.64
2023-05-09T09:08:43.472Z,999.62
2023-05-09T09:09:43.432Z,999.64
2023-05-09T09:10:43.500Z,999.58
2023-05-09T09:11:43.426Z,999.56
2023-05-09T09:12:43.409Z,999.51
2023-05-09T09:13:43.380Z,999.51
2023-05-09T09:14:43.363Z,999.47
2023-05-09T09:15:43.371Z,999.48
2023-05-09T09:16:43.438Z,999.48
2023-05-09T09:17:43.429Z,999.44
2023-05-09T09:18:43.307Z,999.38
2023-05-09T09:19:43.299Z,999.37
2023-05-09T09:20:43.298Z,999.33
2023-05-09T09:21:43.331Z,999.32
2023-05-09T09:22:43.257Z,999.30
2023-05-09T09:23:43.294Z,999.28
2023-05-09T09:24:43.247Z,999.28
2023-05-09T09:25:43.236Z,999.26
2023-05-09T09:26:43.216Z,999.27
2023-05-09T09:27:43.195Z,999.28
2023-05-09T09:28:43.188Z,999.26
2023-05-09T09:29:43.191Z,999.27
2023-05-09T09:30:43.148Z,999.26
2023-05-09T09:31:43.173Z,999.26
2023-05-09T09:32:43.150Z,999.26
2023-05-09T09:33:43.129Z,999.26
2023-05-09T09:34:43.119Z,999.27
2023-05-09T09:35:43.091Z,999.25
2023-05-09T09:36:43.068Z,999.25
2023-05-09T09:37:43.063Z,999.24
2023-05-09T09:38:43.062Z,999.19
2023-05-09T09:39:43.060Z,999.16
2023-05-09T09:40:43.026Z,999.13
2023-05-09T09:41:43.014Z,999.14
2023-05-09T09:42:42.981Z,999.09
2023-05-09T09:43:42.997Z,999.11
2023-05-09T09:44:42.964Z,999.10
2023-05-09T09:45:43.025Z,999.09
2023-05-09T09:46:42.944Z,999.08
2023-05-09T09:47:42.950Z,999.03
2023-05-09T09:48:42.929Z,999.02
2023-05-09T09:49:44.109Z,998.99
2023-05-09T09:50:42.890Z,998.99
2023-05-09T09:51:42.899Z,999.01
2023-05-09T09:52:42.878Z,999.01
2023-05-09T09:53:42.863Z,999.01
2023-05-09T09:54:42.837Z,999.01
2023-05-09T09:55:44.772Z,998.94
2023-05-09T09:56:42.815Z,998.95
2023-05-09T09:57:42.813Z,998.95
2023-05-09T09:58:42.781Z,998.94
2023-05-09T09:59:42.776Z,998.88
2023-05-09T10:00:42.767Z,998.90
2023-05-09T10:01:42.832Z,998.88
2023-05-09T10:02:42.774Z,998.88
2023-05-09T10:03:42.766Z,998.88
2023-05-09T10:04:42.700Z,998.88
2023-05-09T10:05:42.691Z,998.89
2023-05-09T10:06:42.737Z,998.84
2023-05-09T10:07:42.693Z,998.82
2023-05-09T10:08:42.653Z,998.79
2023-05-09T10:09:42.637Z,998.75
2023-05-09T10:10:42.620Z,998.74
2023-05-09T10:11:42.635Z,998.71
2023-05-09T10:12:42.615Z,998.69
2023-05-09T10:13:42.630Z,998.68
2023-05-09T10:14:42.564Z,998.67
2023-05-09T10:15:53.144Z,998.64
2023-05-09T10:16:44.747Z,998.66
2023-05-09T10:17:42.721Z,998.66
2023-05-09T10:18:43.000Z,998.66
2023-05-09T10:19:42.504Z,998.62
2023-05-09T10:20:42.500Z,998.55
2023-05-09T10:21:42.492Z,998.59
2023-05-09T10:22:42.456Z,998.55
2023-05-09T10:23:42.453Z,998.58
2023-05-09T10:24:42.447Z,998.59
2023-05-09T10:25:42.443Z,998.59
2023-05-09T10:26:42.410Z,998.58
2023-05-09T10:27:42.409Z,998.57
2023-05-09T10:28:42.382Z,998.59
2023-05-09T10:29:42.373Z,998.58
2023-05-09T10:30:42.368Z,998.55
2023-05-09T10:31:42.422Z,998.54
2023-05-09T10:32:42.359Z,998.56
2023-05-09T10:33:42.318Z,998.56
2023-05-09T10:34:42.330Z,998.52
2023-05-09T10:35:42.318Z,998.52
2023-05-09T10:36:42.275Z,998.53
2023-05-09T10:37:42.272Z,998.48
2023-05-09T10:38:42.247Z,998.49
2023-05-09T10:39:42.253Z,998.50
2023-05-09T10:40:42.219Z,998.49
2023-05-09T10:41:42.221Z,998.48
2023-05-09T10:42:42.196Z,998.47
2023-05-09T10:43:42.226Z,998.50
2023-05-09T10:44:42.201Z,998.49
2023-05-09T10:45:42.160Z,998.47
2023-05-09T10:46:42.186Z,998.43
2023-05-09T10:47:42.195Z,998.42
2023-05-09T10:48:42.131Z,998.40
2023-05-09T10:49:42.128Z,998.38
2023-05-09T10:50:42.086Z,998.39
2023-05-09T10:51:42.108Z,998.39
2023-05-09T10:52:42.069Z,998.41
2023-05-09T10:53:42.069Z,998.43
2023-05-09T10:54:42.038Z,998.42
2023-05-09T10:55:42.043Z,998.43
2023-05-09T10:56:42.002Z,998.41
2023-05-09T10:57:42.006Z,998.43
2023-05-09T10:58:42.001Z,998.43
2023-05-09T10:59:41.982Z,998.43
2023-05-09T11:00:41.955Z,998.43
2023-05-09T11:01:42.020Z,998.44
2023-05-09T11:02:42.042Z,998.44
2023-05-09T11:03:42.027Z,998.36
2023-05-09T11:04:41.938Z,998.43
2023-05-09T11:05:41.906Z,998.35
2023-05-09T11:06:41.895Z,998.38
2023-05-09T11:07:41.888Z,998.41
2023-05-09T11:08:41.868Z,998.32
2023-05-09T11:09:41.845Z,998.36
2023-05-09T11:10:41.824Z,998.33
2023-05-09T11:11:41.840Z,998.34
2023-05-09T11:12:41.862Z,998.36
2023-05-09T11:13:41.807Z,998.31
2023-05-09T11:14:41.803Z,998.27
2023-05-09T11:15:41.769Z,998.27
2023-05-09T11:16:41.777Z,998.27
2023-05-09T11:17:41.816Z,998.17
2023-05-09T11:18:41.726Z,998.23
2023-05-09T11:19:41.707Z,998.21
2023-05-09T11:20:41.701Z,998.20
2023-05-09T11:21:41.716Z,998.20
2023-05-09T11:22:41.702Z,998.15
2023-05-09T11:23:41.672Z,998.14
2023-05-09T11:24:41.650Z,998.17
2023-05-09T11:25:41.626Z,998.15
2023-05-09T11:26:41.640Z,998.17
2023-05-09T11:27:41.598Z,998.14
2023-05-09T11:28:41.613Z,998.15
2023-05-09T11:29:41.575Z,998.13
2023-05-09T11:30:41.572Z,998.14
2023-05-09T11:31:41.581Z,998.10
2023-05-09T11:32:41.589Z,998.10
2023-05-09T11:33:41.523Z,998.05
2023-05-09T11:34:41.514Z,998.07
2023-05-09T11:35:41.491Z,998.05
2023-05-09T11:36:41.510Z,997.98
2023-05-09T11:37:41.479Z,997.98
2023-05-09T11:38:41.457Z,997.94
2023-05-09T11:39:41.448Z,997.89
2023-05-09T11:40:41.452Z,997.90
2023-05-09T11:41:41.444Z,997.88
2023-05-09T11:42:41.410Z,997.91
2023-05-09T11:43:41.390Z,997.88
2023-05-09T11:44:41.402Z,997.87
2023-05-09T11:45:41.438Z,997.87
2023-05-09T11:46:41.356Z,997.80
2023-05-09T11:47:41.414Z,997.79
2023-05-09T11:48:41.328Z,997.80
2023-05-09T11:49:41.317Z,997.79
2023-05-09T11:50:41.317Z,997.79
2023-05-09T11:51:41.283Z,997.74
2023-05-09T11:52:41.281Z,997.72
2023-05-09T11:53:41.269Z,997.67
2023-05-09T11:54:41.265Z,997.65
2023-05-09T11:55:41.256Z,997.61
2023-05-09T11:56:41.225Z,997.51
2023-05-09T11:57:41.221Z,997.53
2023-05-09T11:58:41.193Z,997.53
2023-05-09T11:59:41.190Z,997.48
2023-05-09T12:00:41.166Z,997.49
2023-05-09T12:01:41.178Z,997.47
2023-05-09T12:02:41.209Z,997.48
2023-05-09T12:03:41.249Z,997.45
2023-05-09T12:04:41.237Z,997.46
2023-05-09T12:05:41.104Z,997.46
2023-05-09T12:06:41.092Z,997.46
2023-05-09T12:07:41.072Z,997.46
2023-05-09T12:08:41.062Z,997.40
2023-05-09T12:09:41.079Z,997.44
2023-05-09T12:10:41.045Z,997.40
2023-05-09T12:11:41.037Z,997.39
2023-05-09T12:12:41.039Z,997.35